createdAt,value
2022-08-22T00:00:13.601Z,1.50
2022-08-22T00:03:17.323Z,1.20
2022-08-22T00:05:51.394Z,1.30
2022-08-22T00:08:26.586Z,1.45
2022-08-22T00:11:02.758Z,1.60
2022-08-22T00:13:39.047Z,1.48
2022-08-22T00:16:14.074Z,1.50
2022-08-22T00:18:52.158Z,1.50
2022-08-22T00:21:26.551Z,1.35
2022-08-22T00:24:04.238Z,1.48
2022-08-22T00:26:45.243Z,1.33
2022-08-22T00:29:18.506Z,1.50
2022-08-22T00:31:52.043Z,1.60
2022-08-22T00:34:31.626Z,1.20
2022-08-22T00:37:05.897Z,1.38
2022-08-22T00:39:40.960Z,1.42
2022-08-22T00:42:45.200Z,1.58
2022-08-22T00:45:40.782Z,1.42
2022-08-22T00:48:23.714Z,1.63
2022-08-22T00:51:24.788Z,1.55
2022-08-22T00:53:56.977Z,1.50
2022-08-22T00:57:09.946Z,1.50
2022-08-22T01:00:16.687Z,1.60
2022-08-22T01:03:22.146Z,1.60
2022-08-22T01:06:00.224Z,1.58
2022-08-22T01:08:52.278Z,1.40
2022-08-22T01:11:39.989Z,1.50
2022-08-22T01:14:34.160Z,1.30
2022-08-22T01:17:30.471Z,1.38
2022-08-22T01:20:35.238Z,1.30
2022-08-22T01:23:42.703Z,1.40
2022-08-22T01:26:41.087Z,1.20
2022-08-22T01:29:45.051Z,1.75
2022-08-22T01:32:47.913Z,1.73
2022-08-22T01:35:54.483Z,1.48
2022-08-22T01:38:59.395Z,1.50
2022-08-22T01:42:12.710Z,1.17
2022-08-22T01:45:16.805Z,1.60
2022-08-22T01:47:51.762Z,1.60
2022-08-22T01:50:26.362Z,1.50
2022-08-22T01:53:02.642Z,1.52
2022-08-22T01:55:38.640Z,1.63
2022-08-22T01:58:17.847Z,1.63
2022-08-22T02:01:12.946Z,1.50
2022-08-22T02:03:54.637Z,1.20
2022-08-22T02:06:33.303Z,1.48
2022-08-22T02:09:08.023Z,1.50
2022-08-22T02:11:48.102Z,1.50
2022-08-22T02:14:27.400Z,1.60
2022-08-22T02:17:08.438Z,1.77
2022-08-22T02:19:45.933Z,1.48
2022-08-22T02:22:29.950Z,1.30
2022-08-22T02:25:09.042Z,1.42
2022-08-22T02:27:50.531Z,1.60
2022-08-22T02:30:21.910Z,1.40
2022-08-22T02:33:06.543Z,1.48
2022-08-22T02:35:41.215Z,1.40
2022-08-22T02:38:24.275Z,1.42
2022-08-22T02:41:04.052Z,1.48
2022-08-22T02:43:43.748Z,1.42
2022-08-22T02:46:24.163Z,1.60
2022-08-22T02:49:01.707Z,1.80
2022-08-22T02:51:38.030Z,1.48
2022-08-22T02:54:16.245Z,1.55
2022-08-22T02:56:47.643Z,1.60
2022-08-22T02:59:25.975Z,1.77
2022-08-22T03:01:56.150Z,1.42
2022-08-22T03:04:44.518Z,1.63
2022-08-22T03:07:24.368Z,1.50
2022-08-22T03:10:02.198Z,1.35
2022-08-22T03:12:36.073Z,1.80
2022-08-22T03:15:12.931Z,1.40
2022-08-22T03:17:51.921Z,1.40
2022-08-22T03:20:39.068Z,1.40
2022-08-22T03:23:15.083Z,1.50
2022-08-22T03:25:49.997Z,1.50
2022-08-22T03:28:25.312Z,1.50
2022-08-22T03:31:10.784Z,1.45
2022-08-22T03:33:39.943Z,1.58
2022-08-22T03:36:13.735Z,1.50
2022-08-22T03:38:55.517Z,1.50
2022-08-22T03:42:04.599Z,1.60
2022-08-22T03:44:59.030Z,1.65
2022-08-22T03:48:06.090Z,1.60
2022-08-22T03:50:56.874Z,1.48
2022-08-22T03:53:50.475Z,1.50
2022-08-22T03:56:45.050Z,1.83
2022-08-22T03:59:42.786Z,1.90
2022-08-22T04:02:59.067Z,1.70
2022-08-22T04:05:46.772Z,1.50
2022-08-22T04:08:51.667Z,1.60
2022-08-22T04:11:36.299Z,1.90
2022-08-22T04:14:25.226Z,1.63
2022-08-22T04:17:11.211Z,1.52
2022-08-22T04:20:08.491Z,1.80
2022-08-22T04:23:04.052Z,1.70
2022-08-22T04:25:38.915Z,1.92
2022-08-22T04:28:12.826Z,1.40
2022-08-22T04:30:47.854Z,1.73
2022-08-22T04:33:22.332Z,1.77
2022-08-22T04:36:01.870Z,1.73
2022-08-22T04:38:35.278Z,1.60
2022-08-22T04:41:10.393Z,1.75
2022-08-22T04:43:46.260Z,1.65
2022-08-22T04:46:21.037Z,2.00
2022-08-22T04:48:54.841Z,1.73
2022-08-22T04:51:30.858Z,1.60
2022-08-22T04:54:33.234Z,1.90
2022-08-22T04:57:16.921Z,1.70
2022-08-22T04:59:45.993Z,2.00
2022-08-22T05:02:23.481Z,1.73
2022-08-22T05:04:59.280Z,1.92
2022-08-22T05:07:35.916Z,1.67
2022-08-22T05:10:12.053Z,1.80
2022-08-22T05:12:47.586Z,1.65
2022-08-22T05:15:23.312Z,1.80
2022-08-22T05:17:55.427Z,1.80
2022-08-22T05:20:27.299Z,1.50
2022-08-22T05:23:00.383Z,1.65
2022-08-22T05:25:36.805Z,1.90
2022-08-22T05:28:13.433Z,1.77
2022-08-22T05:30:42.917Z,1.92
2022-08-22T05:33:17.722Z,1.80
2022-08-22T05:35:57.239Z,1.58
2022-08-22T05:38:31.850Z,1.70
2022-08-22T05:41:07.612Z,1.60
2022-08-22T05:43:40.305Z,1.85
2022-08-22T05:46:16.116Z,1.70
2022-08-22T05:48:52.354Z,1.83
2022-08-22T05:51:25.518Z,1.52
2022-08-22T05:54:02.082Z,1.95
2022-08-22T05:56:37.278Z,1.90
2022-08-22T05:59:20.318Z,1.67
2022-08-22T06:02:00.595Z,2.13
2022-08-22T06:04:37.021Z,1.88
2022-08-22T06:07:10.727Z,2.00
2022-08-22T06:10:06.777Z,1.90
2022-08-22T06:12:40.269Z,1.90
2022-08-22T06:15:20.944Z,2.13
2022-08-22T06:17:51.852Z,2.13
2022-08-22T06:20:23.969Z,2.00
2022-08-22T06:22:56.348Z,2.10
2022-08-22T06:25:28.553Z,2.08
2022-08-22T06:27:59.705Z,2.15
2022-08-22T06:30:31.775Z,2.33
2022-08-22T06:33:04.790Z,2.22
2022-08-22T06:36:04.136Z,2.05
2022-08-22T06:38:37.281Z,2.17
2022-08-22T06:41:10.740Z,1.95
2022-08-22T06:43:44.534Z,2.00
2022-08-22T06:46:17.453Z,2.28
2022-08-22T06:48:46.925Z,2.20
2022-08-22T06:51:18.934Z,1.98
2022-08-22T06:53:49.492Z,2.25
2022-08-22T06:56:24.687Z,2.10
2022-08-22T06:58:56.333Z,2.28
2022-08-22T07:01:28.458Z,2.22
2022-08-22T07:04:01.503Z,2.28
2022-08-22T07:06:32.746Z,2.20
2022-08-22T07:09:06.713Z,2.50
2022-08-22T07:11:40.651Z,2.17
2022-08-22T07:14:12.385Z,2.40
2022-08-22T07:16:45.572Z,2.40
2022-08-22T07:19:25.961Z,2.15
2022-08-22T07:21:54.757Z,2.40
2022-08-22T07:24:26.886Z,2.28
2022-08-22T07:27:12.668Z,2.60
2022-08-22T07:29:52.583Z,2.20
2022-08-22T07:32:29.904Z,2.50
2022-08-22T07:35:09.544Z,2.05
2022-08-22T07:37:51.491Z,2.20
2022-08-22T07:40:27.213Z,2.28
2022-08-22T07:43:02.122Z,2.20
2022-08-22T07:45:37.327Z,2.22
2022-08-22T07:48:27.493Z,2.40
2022-08-22T07:51:04.041Z,2.25
2022-08-22T07:53:40.518Z,2.28
2022-08-22T07:56:15.774Z,2.67
2022-08-22T07:58:47.312Z,2.38
2022-08-22T08:01:20.787Z,2.30
2022-08-22T08:03:55.890Z,2.40
2022-08-22T08:06:26.526Z,2.25
2022-08-22T08:08:56.093Z,2.30
2022-08-22T08:11:28.200Z,2.03
2022-08-22T08:14:00.450Z,2.00
2022-08-22T08:16:34.576Z,2.20
2022-08-22T08:19:04.719Z,2.17
2022-08-22T08:21:38.850Z,1.92
2022-08-22T08:24:13.484Z,2.10
2022-08-22T08:27:05.848Z,2.25
2022-08-22T08:29:34.023Z,2.10
2022-08-22T08:32:02.982Z,2.30
2022-08-22T08:34:34.447Z,2.10
2022-08-22T08:37:08.341Z,2.40
2022-08-22T08:39:48.632Z,1.75
2022-08-22T08:43:11.045Z,2.70
2022-08-22T08:45:56.485Z,2.88
2022-08-22T08:49:05.840Z,2.45
2022-08-22T08:51:55.592Z,2.70
2022-08-22T08:54:40.202Z,2.65
2022-08-22T08:57:20.280Z,2.88
2022-08-22T09:00:01.635Z,2.92
2022-08-22T09:03:00.741Z,3.30
2022-08-22T09:06:03.980Z,2.65
2022-08-22T09:09:04.078Z,2.75
2022-08-22T09:12:02.814Z,2.80
2022-08-22T09:15:18.255Z,2.83
2022-08-22T09:18:31.069Z,2.67
2022-08-22T09:21:31.328Z,2.45
2022-08-22T09:24:43.316Z,2.60
2022-08-22T09:27:16.373Z,2.60
2022-08-22T09:29:59.712Z,2.55
2022-08-22T09:32:44.131Z,2.28
2022-08-22T09:35:23.901Z,2.55
2022-08-22T09:38:20.935Z,2.47
2022-08-22T09:41:00.520Z,2.20
2022-08-22T09:43:38.617Z,2.13
2022-08-22T09:46:18.646Z,2.65
2022-08-22T09:49:08.065Z,2.60
2022-08-22T09:51:40.891Z,2.45
2022-08-22T09:54:23.002Z,2.42
2022-08-22T09:57:14.508Z,2.53
2022-08-22T10:00:01.081Z,2.15
2022-08-22T10:02:36.467Z,2.45
2022-08-22T10:05:41.249Z,2.10
2022-08-22T10:08:19.633Z,2.25
2022-08-22T10:11:11.406Z,2.20
2022-08-22T10:13:57.789Z,2.17
2022-08-22T10:16:45.145Z,2.10
2022-08-22T10:19:21.379Z,2.25
2022-08-22T10:22:17.379Z,2.15
2022-08-22T10:24:58.530Z,1.98
2022-08-22T10:27:44.994Z,2.00
2022-08-22T10:30:19.624Z,1.95
2022-08-22T10:32:54.758Z,1.90
2022-08-22T10:35:29.114Z,2.10
2022-08-22T10:38:10.793Z,1.85
2022-08-22T10:40:49.462Z,1.80
2022-08-22T10:43:28.929Z,1.95
2022-08-22T10:46:04.556Z,1.83
2022-08-22T10:48:43.810Z,1.90
2022-08-22T10:51:35.869Z,1.88
2022-08-22T10:54:27.220Z,2.05
2022-08-22T10:57:09.468Z,1.50
2022-08-22T10:59:44.860Z,1.95
2022-08-22T11:02:34.374Z,1.85
2022-08-22T11:05:29.053Z,1.45
2022-08-22T11:08:07.739Z,1.73
2022-08-22T11:10:53.619Z,1.80
2022-08-22T11:13:30.623Z,1.60
2022-08-22T11:16:10.845Z,1.42
2022-08-22T11:19:15.303Z,1.67
2022-08-22T11:21:57.351Z,1.70
2022-08-22T11:25:12.618Z,1.50
2022-08-22T11:27:53.824Z,1.80
2022-08-22T11:30:30.668Z,1.75
2022-08-22T11:33:21.583Z,1.88
2022-08-22T11:36:19.812Z,1.77
2022-08-22T11:39:04.439Z,1.70
2022-08-22T11:41:44.513Z,1.80
2022-08-22T11:44:25.645Z,1.83
2022-08-22T11:46:58.908Z,1.55
2022-08-22T11:49:33.183Z,1.50
2022-08-22T11:52:19.730Z,1.60
2022-08-22T11:55:07.195Z,1.65
2022-08-22T11:57:39.130Z,1.60
2022-08-22T12:00:24.713Z,1.55
2022-08-22T12:03:14.924Z,1.33
2022-08-22T12:05:48.010Z,1.67
2022-08-22T12:08:28.349Z,1.60
2022-08-22T12:11:02.775Z,1.58
2022-08-22T12:13:49.069Z,1.58
2022-08-22T12:16:23.342Z,1.50
2022-08-22T12:19:02.076Z,1.65
2022-08-22T12:22:18.892Z,1.58
2022-08-22T12:25:04.493Z,1.73
2022-08-22T12:27:55.265Z,1.60
2022-08-22T12:30:32.367Z,1.60
2022-08-22T12:33:22.050Z,1.73
2022-08-22T12:36:12.628Z,1.40
2022-08-22T12:39:01.629Z,1.75
2022-08-22T12:42:04.156Z,1.50
2022-08-22T12:44:48.006Z,1.52
2022-08-22T12:47:35.888Z,1.50
2022-08-22T12:50:19.178Z,1.52
2022-08-22T12:53:00.510Z,1.58
2022-08-22T12:55:50.527Z,1.70
2022-08-22T12:58:35.623Z,1.58
2022-08-22T13:01:07.726Z,1.52
2022-08-22T13:03:41.549Z,1.90
2022-08-22T13:06:49.925Z,1.70
2022-08-22T13:09:28.679Z,1.40
2022-08-22T13:12:02.416Z,1.60
2022-08-22T13:14:34.905Z,1.73
2022-08-22T13:17:10.040Z,1.75
2022-08-22T13:20:04.815Z,1.30
2022-08-22T13:22:36.185Z,1.40
2022-08-22T13:25:15.600Z,1.50
2022-08-22T13:27:56.371Z,1.45
2022-08-22T13:30:33.538Z,1.50
2022-08-22T13:33:09.796Z,1.60
2022-08-22T13:35:44.834Z,1.55
2022-08-22T13:38:26.642Z,1.30
2022-08-22T13:40:57.187Z,1.35
2022-08-22T13:43:29.858Z,1.85
2022-08-22T13:46:02.418Z,1.52
2022-08-22T13:48:46.739Z,1.42
2022-08-22T13:51:23.463Z,1.50
2022-08-22T13:54:00.581Z,1.45
2022-08-22T13:56:35.717Z,1.50
2022-08-22T13:59:09.606Z,1.40
2022-08-22T14:01:49.507Z,1.70
2022-08-22T14:04:33.437Z,1.70
2022-08-22T14:07:33.415Z,1.55
2022-08-22T14:10:05.431Z,1.30
2022-08-22T14:13:05.199Z,1.48
2022-08-22T14:15:44.733Z,1.60
2022-08-22T14:18:21.480Z,1.50
2022-08-22T14:21:20.085Z,1.58
2022-08-22T14:23:52.119Z,1.67
2022-08-22T14:26:32.757Z,1.40
2022-08-22T14:29:04.227Z,1.57
2022-08-22T14:31:33.113Z,1.40
2022-08-22T14:34:10.722Z,1.40
2022-08-22T14:36:49.906Z,1.38
2022-08-22T14:39:27.622Z,1.48
2022-08-22T14:42:04.233Z,1.70
2022-08-22T14:44:37.981Z,1.83
2022-08-22T14:47:54.633Z,1.65
2022-08-22T14:50:11.175Z,1.77
2022-08-22T14:52:43.470Z,1.15
2022-08-22T14:55:18.347Z,1.30
2022-08-22T14:57:54.931Z,1.80
2022-08-22T15:00:37.526Z,1.50
2022-08-22T15:03:13.677Z,1.45
2022-08-22T15:05:47.589Z,1.60
2022-08-22T15:08:24.282Z,1.40
2022-08-22T15:11:25.640Z,1.40
2022-08-22T15:13:59.862Z,1.38
2022-08-22T15:16:33.933Z,1.38
2022-08-22T15:19:02.721Z,1.70
2022-08-22T15:21:37.188Z,1.33
2022-08-22T15:24:15.029Z,1.50
2022-08-22T15:26:52.992Z,1.95
2022-08-22T15:29:26.618Z,1.60
2022-08-22T15:31:59.213Z,1.85
2022-08-22T15:34:33.601Z,1.50
2022-08-22T15:37:32.450Z,2.00
2022-08-22T15:40:11.572Z,1.75
2022-08-22T15:42:43.381Z,1.65
2022-08-22T15:45:22.319Z,1.75
2022-08-22T15:47:53.682Z,1.70
2022-08-22T15:50:48.564Z,1.77
2022-08-22T15:53:25.760Z,2.10
2022-08-22T15:56:26.637Z,1.50
2022-08-22T15:59:27.930Z,1.60
2022-08-22T16:02:04.714Z,1.50
2022-08-22T16:04:38.003Z,1.70
2022-08-22T16:07:28.571Z,1.70
2022-08-22T16:10:00.491Z,1.70
2022-08-22T16:12:34.273Z,1.65
2022-08-22T16:15:05.456Z,1.85
2022-08-22T16:17:53.276Z,1.73
2022-08-22T16:20:56.755Z,1.80
2022-08-22T16:23:25.153Z,1.75
2022-08-22T16:26:15.290Z,1.70
2022-08-22T16:28:58.288Z,1.70
2022-08-22T16:31:30.912Z,2.05
2022-08-22T16:34:20.347Z,1.88
2022-08-22T16:36:52.911Z,2.00
2022-08-22T16:39:39.899Z,1.60
2022-08-22T16:42:28.720Z,1.80
2022-08-22T16:45:27.789Z,1.67
2022-08-22T16:47:58.560Z,1.85
2022-08-22T16:50:35.308Z,1.83
2022-08-22T16:53:10.641Z,1.73
2022-08-22T16:56:08.052Z,2.28
2022-08-22T16:59:22.812Z,1.80
2022-08-22T17:02:15.716Z,2.08
2022-08-22T17:04:56.751Z,1.67
2022-08-22T17:07:36.291Z,1.83
2022-08-22T17:10:34.854Z,2.00
2022-08-22T17:13:15.874Z,1.45
2022-08-22T17:16:03.414Z,1.73
2022-08-22T17:18:47.968Z,1.77
2022-08-22T17:21:25.925Z,1.70
2022-08-22T17:24:33.539Z,1.98
2022-08-22T17:27:12.249Z,1.60
2022-08-22T17:29:52.441Z,1.60
2022-08-22T17:32:33.517Z,1.90
2022-08-22T17:35:14.607Z,1.88
2022-08-22T17:37:51.461Z,1.90
2022-08-22T17:40:34.193Z,1.70
2022-08-22T17:43:16.821Z,2.10
2022-08-22T17:46:03.782Z,2.10
2022-08-22T17:48:41.998Z,2.08
2022-08-22T17:51:28.265Z,1.88
2022-08-22T17:54:01.973Z,2.00
2022-08-22T17:56:36.489Z,1.60
2022-08-22T17:59:10.721Z,1.88
2022-08-22T18:01:52.675Z,2.05
2022-08-22T18:04:55.892Z,1.90
2022-08-22T18:14:13.582Z,2.13
2022-08-22T18:17:15.260Z,2.05
2022-08-22T18:35:24.979Z,1.80
2022-08-22T18:38:54.829Z,2.22
2022-08-22T18:46:25.607Z,2.05
2022-08-22T18:49:14.571Z,1.90
2022-08-22T18:51:44.785Z,1.80
2022-08-22T18:54:41.015Z,1.90
2022-08-22T18:57:30.944Z,1.90
2022-08-22T19:00:08.784Z,2.03
2022-08-22T19:03:08.846Z,1.58
2022-08-22T19:06:15.830Z,1.70
2022-08-22T19:09:03.716Z,2.17
2022-08-22T19:15:58.014Z,2.10
2022-08-22T19:18:44.971Z,1.77
2022-08-22T19:21:42.843Z,1.80
2022-08-22T19:24:49.725Z,1.85
2022-08-22T19:27:41.515Z,1.80
2022-08-22T19:30:44.370Z,1.60
2022-08-22T19:33:25.633Z,1.63
2022-08-22T19:36:12.942Z,2.20
2022-08-22T19:39:03.635Z,2.15
2022-08-22T19:41:53.058Z,1.75
2022-08-22T19:44:37.781Z,1.88
2022-08-22T19:47:32.372Z,1.70
2022-08-22T19:50:06.005Z,1.60
2022-08-22T19:53:00.947Z,2.00
2022-08-22T19:55:45.206Z,1.60
2022-08-22T19:58:31.915Z,1.98
2022-08-22T20:01:09.294Z,1.83
2022-08-22T20:03:48.453Z,2.00
2022-08-22T20:06:43.633Z,1.95
2022-08-22T20:09:27.642Z,1.88
2022-08-22T20:12:06.992Z,1.70
2022-08-22T20:14:39.874Z,1.67
2022-08-22T20:17:13.523Z,2.05
2022-08-22T20:22:59.455Z,1.60
2022-08-22T20:25:43.569Z,1.80
2022-08-22T20:28:32.711Z,1.52
2022-08-22T20:31:05.322Z,1.65
2022-08-22T20:33:39.144Z,1.70
2022-08-22T20:36:27.151Z,1.70
2022-08-22T20:39:01.512Z,2.10
2022-08-22T20:41:35.658Z,1.98
2022-08-22T20:44:12.892Z,1.60
2022-08-22T20:46:53.611Z,2.00
2022-08-22T20:49:26.462Z,1.90
2022-08-22T20:51:56.870Z,1.80
2022-08-22T20:54:27.510Z,1.75
2022-08-22T20:56:58.441Z,1.90
2022-08-22T20:59:31.070Z,1.83
2022-08-22T21:02:14.743Z,1.70
2022-08-22T21:04:53.107Z,1.73
2022-08-22T21:07:31.147Z,1.90
2022-08-22T21:10:22.570Z,1.90
2022-08-22T21:13:07.999Z,2.05
2022-08-22T21:15:39.409Z,1.67
2022-08-22T21:18:11.172Z,1.88
2022-08-22T21:20:40.997Z,1.63
2022-08-22T21:23:13.853Z,1.77
2022-08-22T21:25:57.470Z,1.52
2022-08-22T21:28:31.743Z,1.52
2022-08-22T21:31:01.963Z,1.63
2022-08-22T21:33:32.103Z,1.80
2022-08-22T21:36:01.896Z,1.83
2022-08-22T21:38:30.421Z,1.60
2022-08-22T21:41:05.497Z,1.92
2022-08-22T21:43:37.018Z,2.00
2022-08-22T21:46:06.519Z,2.03
2022-08-22T21:48:39.414Z,1.70
2022-08-22T21:51:30.940Z,1.90
2022-08-22T21:54:21.206Z,1.60
2022-08-22T21:56:49.800Z,1.55
2022-08-22T21:59:25.034Z,1.70
2022-08-22T22:01:54.170Z,1.52
2022-08-22T23:24:06.427Z,1.83
2022-08-22T23:26:36.626Z,1.70
2022-08-22T23:29:06.340Z,1.77
2022-08-22T23:31:36.861Z,1.80
2022-08-22T23:34:07.281Z,1.52
2022-08-22T23:36:38.359Z,1.67
2022-08-22T23:39:08.382Z,1.70
2022-08-22T23:41:40.602Z,1.90
2022-08-22T23:44:13.700Z,1.85
2022-08-22T23:46:43.771Z,1.70
2022-08-22T23:49:12.912Z,1.90
2022-08-22T23:51:42.028Z,1.73
2022-08-22T23:54:10.504Z,1.80
2022-08-22T23:56:42.665Z,1.83
2022-08-22T23:59:14.018Z,1.80
